createdAt,value
2023-11-16T00:00:37.524Z,1.05
2023-11-16T00:03:07.676Z,1.25
2023-11-16T00:05:37.439Z,1.20
2023-11-16T00:08:08.556Z,1.10
2023-11-16T00:10:38.324Z,1.33
2023-11-16T00:13:06.520Z,1.48
2023-11-16T00:15:34.357Z,1.73
2023-11-16T00:18:05.660Z,1.30
2023-11-16T00:20:33.655Z,1.55
2023-11-16T00:23:00.760Z,2.05
2023-11-16T00:25:27.528Z,1.65
2023-11-16T00:27:54.204Z,2.60
2023-11-16T00:30:20.802Z,1.15
2023-11-16T00:32:47.367Z,1.27
2023-11-16T00:35:13.965Z,1.33
2023-11-16T00:37:40.523Z,1.67
2023-11-16T00:40:08.621Z,2.00
2023-11-16T00:42:38.050Z,1.40
2023-11-16T00:45:05.131Z,1.30
2023-11-16T00:47:31.734Z,1.33
2023-11-16T00:52:25.849Z,1.58
2023-11-16T00:54:52.414Z,1.35
2023-11-16T00:59:50.112Z,1.25
2023-11-16T01:02:16.787Z,1.23
2023-11-16T01:04:43.360Z,1.65
2023-11-16T01:09:38.228Z,2.22
2023-11-16T01:12:05.968Z,1.30
2023-11-16T01:14:32.627Z,1.23
2023-11-16T01:17:09.048Z,1.58
2023-11-16T01:19:38.552Z,1.33
2023-11-16T01:22:05.248Z,1.33
2023-11-16T01:24:36.478Z,1.75
2023-11-16T01:27:16.493Z,1.25
2023-11-16T01:29:46.984Z,1.90
2023-11-16T01:32:14.687Z,1.13
2023-11-16T01:34:43.660Z,1.88
2023-11-16T01:37:11.364Z,1.40
2023-11-16T01:39:41.153Z,1.17
2023-11-16T01:42:09.241Z,1.25
2023-11-16T01:44:36.457Z,1.98
2023-11-16T01:47:04.551Z,1.80
2023-11-16T01:49:31.584Z,1.65
2023-11-16T01:51:58.740Z,1.95
2023-11-16T01:54:25.619Z,1.30
2023-11-16T01:56:52.662Z,1.13
2023-11-16T01:59:20.778Z,1.23
2023-11-16T02:01:47.948Z,1.13
2023-11-16T02:04:15.763Z,1.20
2023-11-16T02:06:42.916Z,1.02
2023-11-16T02:09:11.277Z,1.33
2023-11-16T02:11:38.413Z,1.13
2023-11-16T02:14:05.451Z,1.98
2023-11-16T02:16:32.598Z,1.83
2023-11-16T02:19:06.126Z,2.78
2023-11-16T02:21:39.857Z,1.23
2023-11-16T02:24:08.184Z,1.73
2023-11-16T02:26:34.884Z,0.95
2023-11-16T02:29:01.374Z,0.90
2023-11-16T02:34:05.386Z,1.13
2023-11-16T02:39:01.533Z,1.02
2023-11-16T02:41:30.431Z,1.20
2023-11-16T02:43:56.959Z,1.35
2023-11-16T02:48:49.952Z,0.80
2023-11-16T02:53:44.753Z,1.88
2023-11-16T02:56:14.402Z,2.15
2023-11-16T02:58:44.940Z,1.10
2023-11-16T03:01:14.368Z,1.60
2023-11-16T03:03:41.787Z,1.58
2023-11-16T03:06:09.835Z,1.08
2023-11-16T03:08:37.019Z,1.20
2023-11-16T03:11:06.852Z,1.20
2023-11-16T03:13:33.488Z,1.20
2023-11-16T03:15:59.969Z,1.23
2023-11-16T03:20:54.226Z,1.05
2023-11-16T03:23:20.817Z,0.98
2023-11-16T03:25:47.678Z,1.02
2023-11-16T03:28:14.438Z,1.27
2023-11-16T03:30:41.245Z,1.27
2023-11-16T03:33:12.889Z,1.20
2023-11-16T03:35:40.330Z,1.13
2023-11-16T03:38:06.968Z,0.80
2023-11-16T03:40:34.121Z,0.93
2023-11-16T03:43:00.636Z,1.42
2023-11-16T03:47:53.728Z,1.23
2023-11-16T03:50:20.335Z,1.13
2023-11-16T03:55:14.239Z,1.20
2023-11-16T03:57:41.408Z,1.08
2023-11-16T04:00:09.181Z,1.95
2023-11-16T04:02:37.020Z,1.40
2023-11-16T04:05:06.196Z,2.13
2023-11-16T04:07:35.663Z,1.42
2023-11-16T04:10:05.276Z,1.23
2023-11-16T04:12:32.013Z,1.52
2023-11-16T04:14:59.154Z,1.17
2023-11-16T04:17:27.563Z,1.38
2023-11-16T04:19:54.477Z,1.55
2023-11-16T04:24:53.115Z,1.00
2023-11-16T04:27:20.675Z,0.95
2023-11-16T04:29:47.808Z,1.23
2023-11-16T04:32:15.972Z,1.60
2023-11-16T04:34:43.475Z,1.17
2023-11-16T04:37:11.752Z,1.13
2023-11-16T04:39:38.550Z,1.27
2023-11-16T04:42:05.367Z,2.03
2023-11-16T04:44:35.511Z,2.05
2023-11-16T04:47:02.554Z,1.50
2023-11-16T04:49:29.295Z,1.08
2023-11-16T04:51:55.856Z,0.90
2023-11-16T04:56:49.125Z,1.23
2023-11-16T05:01:42.021Z,1.27
2023-11-16T05:04:09.234Z,2.53
2023-11-16T05:06:40.750Z,1.23
2023-11-16T05:09:07.278Z,1.02
2023-11-16T05:11:34.075Z,1.88
2023-11-16T05:14:00.553Z,1.08
2023-11-16T05:18:55.371Z,1.30
2023-11-16T05:21:22.409Z,1.35
2023-11-16T05:23:49.271Z,1.05
2023-11-16T05:26:17.908Z,1.05
2023-11-16T05:28:44.727Z,1.52
2023-11-16T05:31:11.340Z,1.48
2023-11-16T05:33:39.436Z,1.50
2023-11-16T05:36:07.438Z,1.05
2023-11-16T05:38:34.108Z,1.15
2023-11-16T05:41:00.645Z,1.55
2023-11-16T05:45:53.633Z,2.28
2023-11-16T05:50:48.057Z,1.88
2023-11-16T05:53:15.046Z,1.45
2023-11-16T05:55:41.609Z,2.22
2023-11-16T06:00:38.770Z,1.70
2023-11-16T06:03:07.015Z,2.13
2023-11-16T06:05:35.155Z,1.48
2023-11-16T06:08:01.779Z,2.65
2023-11-16T06:12:58.675Z,1.90
2023-11-16T06:15:26.475Z,1.63
2023-11-16T06:17:56.330Z,2.20
2023-11-16T06:20:23.094Z,1.95
2023-11-16T06:25:18.309Z,1.77
2023-11-16T06:27:46.388Z,1.85
2023-11-16T06:30:14.521Z,2.05
2023-11-16T06:32:41.621Z,1.52
2023-11-16T06:35:11.253Z,1.70
2023-11-16T06:37:38.792Z,2.42
2023-11-16T06:40:06.441Z,2.20
2023-11-16T06:42:34.088Z,3.65
2023-11-16T06:45:05.350Z,2.42
2023-11-16T06:47:33.299Z,2.70
2023-11-16T06:50:00.184Z,3.38
2023-11-16T06:52:28.250Z,13.57
2023-11-16T06:54:57.533Z,8.30
2023-11-16T06:57:24.098Z,2.90
2023-11-16T07:02:22.447Z,5.38
2023-11-16T07:04:52.003Z,3.25
2023-11-16T07:07:18.797Z,1.95
2023-11-16T07:09:47.337Z,2.53
2023-11-16T07:12:16.028Z,1.98
2023-11-16T07:14:48.100Z,1.27
2023-11-16T07:17:20.360Z,1.38
2023-11-16T07:19:48.699Z,1.80
2023-11-16T07:22:15.505Z,1.30
2023-11-16T07:24:45.913Z,1.45
2023-11-16T07:27:13.574Z,1.13
2023-11-16T07:29:42.390Z,1.42
2023-11-16T07:32:09.014Z,1.33
2023-11-16T07:34:38.730Z,1.63
2023-11-16T07:37:05.252Z,2.30
2023-11-16T07:42:00.403Z,1.38
2023-11-16T07:44:26.948Z,2.45
2023-11-16T07:49:20.954Z,1.55
2023-11-16T07:51:48.705Z,1.60
2023-11-16T07:54:16.894Z,2.08
2023-11-16T07:56:51.163Z,3.55
2023-11-16T07:59:19.980Z,2.03
2023-11-16T08:01:56.961Z,1.30
2023-11-16T08:04:26.863Z,1.92
2023-11-16T08:06:57.728Z,1.55
2023-11-16T08:09:25.810Z,1.75
2023-11-16T08:11:55.508Z,2.13
2023-11-16T08:14:26.098Z,1.45
2023-11-16T08:16:57.011Z,1.45
2023-11-16T08:19:24.245Z,0.98
2023-11-16T08:21:51.039Z,1.55
2023-11-16T08:24:19.340Z,1.40
2023-11-16T08:26:45.868Z,1.35
2023-11-16T08:31:39.436Z,1.25
2023-11-16T08:34:05.988Z,1.45
2023-11-16T08:38:59.807Z,1.08
2023-11-16T08:41:27.199Z,1.48
2023-11-16T08:43:53.722Z,1.08
2023-11-16T08:48:52.987Z,1.38
2023-11-16T08:51:24.296Z,1.42
2023-11-16T08:53:58.401Z,1.48
2023-11-16T08:56:34.854Z,1.88
2023-11-16T08:59:09.102Z,2.00
2023-11-16T09:01:40.124Z,1.77
2023-11-16T09:04:10.585Z,1.27
2023-11-16T09:06:37.480Z,1.58
2023-11-16T09:09:11.000Z,1.38
2023-11-16T09:11:37.824Z,1.95
2023-11-16T09:14:05.564Z,1.45
2023-11-16T09:16:34.415Z,1.50
2023-11-16T09:19:01.459Z,1.90
2023-11-16T09:21:30.715Z,1.00
2023-11-16T09:23:57.550Z,1.42
2023-11-16T09:26:25.145Z,1.30
2023-11-16T09:29:01.366Z,0.98
2023-11-16T09:31:34.651Z,1.20
2023-11-16T09:34:04.779Z,1.10
2023-11-16T09:36:31.490Z,0.82
2023-11-16T09:38:58.644Z,1.23
2023-11-16T09:41:28.430Z,1.02
2023-11-16T09:44:06.609Z,0.88
2023-11-16T09:46:34.032Z,2.65
2023-11-16T09:49:07.316Z,0.93
2023-11-16T09:51:37.020Z,0.93
2023-11-16T09:54:09.620Z,1.05
2023-11-16T09:56:41.624Z,1.23
2023-11-16T09:59:14.661Z,1.00
2023-11-16T10:01:46.176Z,1.40
2023-11-16T10:04:15.787Z,1.05
2023-11-16T10:06:49.625Z,0.95
2023-11-16T10:09:16.662Z,1.83
2023-11-16T10:11:43.527Z,0.82
2023-11-16T10:14:10.301Z,1.33
2023-11-16T10:16:36.821Z,1.30
2023-11-16T10:19:07.568Z,1.00
2023-11-16T10:21:35.311Z,0.80
2023-11-16T10:24:10.216Z,0.60
2023-11-16T10:26:37.009Z,1.13
2023-11-16T10:29:03.533Z,1.40
2023-11-16T10:34:06.120Z,1.23
2023-11-16T10:36:33.717Z,1.17
2023-11-16T10:39:02.312Z,1.20
2023-11-16T10:41:30.799Z,1.10
2023-11-16T10:43:59.149Z,0.82
2023-11-16T10:46:28.744Z,1.27
2023-11-16T10:48:55.473Z,0.98
2023-11-16T10:51:25.520Z,1.23
2023-11-16T10:53:54.921Z,0.95
2023-11-16T10:56:22.607Z,0.90
2023-11-16T10:58:51.791Z,1.17
2023-11-16T11:01:20.190Z,1.45
2023-11-16T11:03:48.986Z,1.55
2023-11-16T11:06:20.473Z,1.23
2023-11-16T11:08:49.446Z,0.95
2023-11-16T11:11:25.734Z,1.00
2023-11-16T11:13:56.131Z,1.40
2023-11-16T11:16:26.664Z,1.52
2023-11-16T11:18:54.317Z,2.13
2023-11-16T11:21:25.020Z,1.00
2023-11-16T11:24:10.546Z,1.33
2023-11-16T11:29:13.671Z,1.67
2023-11-16T11:31:52.008Z,1.15
2023-11-16T11:34:19.017Z,1.25
2023-11-16T11:36:45.784Z,1.27
2023-11-16T11:39:18.355Z,1.17
2023-11-16T11:42:00.596Z,0.77
2023-11-16T11:44:28.061Z,1.17
2023-11-16T11:46:58.525Z,2.25
2023-11-16T11:49:26.356Z,1.35
2023-11-16T11:51:54.321Z,2.38
2023-11-16T11:54:21.004Z,1.30
2023-11-16T11:56:48.091Z,1.48
2023-11-16T11:59:15.183Z,1.23
2023-11-16T12:01:41.892Z,1.52
2023-11-16T12:04:16.330Z,1.15
2023-11-16T12:06:46.247Z,1.17
2023-11-16T12:09:13.326Z,1.17
2023-11-16T12:11:41.199Z,1.38
2023-11-16T12:14:10.707Z,1.23
2023-11-16T12:16:38.829Z,1.17
2023-11-16T12:19:10.026Z,1.15
2023-11-16T12:21:40.786Z,1.25
2023-11-16T12:24:09.836Z,1.10
2023-11-16T12:26:37.004Z,2.63
2023-11-16T12:29:16.518Z,1.15
2023-11-16T12:31:45.153Z,1.20
2023-11-16T12:34:13.372Z,1.48
2023-11-16T12:36:45.634Z,0.90
2023-11-16T12:39:14.887Z,1.23
2023-11-16T12:41:42.097Z,0.98
2023-11-16T12:44:08.706Z,0.93
2023-11-16T12:46:36.784Z,1.80
2023-11-16T12:49:03.493Z,1.05
2023-11-16T12:51:30.518Z,0.85
2023-11-16T12:53:57.162Z,0.80
2023-11-16T12:56:23.671Z,0.82
2023-11-16T13:01:17.087Z,1.20
2023-11-16T13:03:50.214Z,1.30
2023-11-16T13:06:19.983Z,1.92
2023-11-16T13:08:46.570Z,1.00
2023-11-16T13:11:14.530Z,0.90
2023-11-16T13:13:41.335Z,0.93
2023-11-16T13:16:10.016Z,0.73
2023-11-16T13:18:36.913Z,1.88
2023-11-16T13:21:11.498Z,1.23
2023-11-16T13:23:42.995Z,0.75
2023-11-16T13:26:10.597Z,0.68
2023-11-16T13:28:38.262Z,1.23
2023-11-16T13:31:05.535Z,1.02
2023-11-16T13:33:33.101Z,1.20
2023-11-16T13:36:00.905Z,0.70
2023-11-16T13:38:29.536Z,0.90
2023-11-16T13:40:56.345Z,0.82
2023-11-16T13:43:22.903Z,0.98
2023-11-16T13:45:49.524Z,2.10
2023-11-16T13:48:18.488Z,2.63
2023-11-16T13:50:45.052Z,0.88
2023-11-16T13:53:11.697Z,0.93
2023-11-16T13:55:38.248Z,1.63
2023-11-16T13:58:05.501Z,1.55
2023-11-16T14:00:33.570Z,2.10
2023-11-16T14:03:00.627Z,1.42
2023-11-16T14:05:27.298Z,1.25
2023-11-16T14:07:57.057Z,1.23
2023-11-16T14:10:24.999Z,1.75
2023-11-16T14:12:56.136Z,2.58
2023-11-16T14:15:24.150Z,2.42
2023-11-16T14:17:51.035Z,1.92
2023-11-16T14:20:18.209Z,1.45
2023-11-16T14:22:45.738Z,2.55
2023-11-16T14:25:12.491Z,1.85
2023-11-16T14:27:39.265Z,1.65
2023-11-16T14:30:06.448Z,1.75
2023-11-16T14:32:33.088Z,1.60
2023-11-16T14:35:13.896Z,2.40
2023-11-16T14:37:46.180Z,1.50
2023-11-16T14:40:13.401Z,2.53
2023-11-16T14:42:40.197Z,2.38
2023-11-16T14:45:07.513Z,2.63
2023-11-16T14:47:39.511Z,4.97
2023-11-16T14:50:10.114Z,2.58
2023-11-16T14:52:37.972Z,2.00
2023-11-16T14:55:08.613Z,1.73
2023-11-16T14:57:39.057Z,2.05
2023-11-16T15:00:10.015Z,1.45
2023-11-16T15:02:37.355Z,2.15
2023-11-16T15:05:09.877Z,2.83
2023-11-16T15:07:39.152Z,2.33
2023-11-16T15:10:08.725Z,2.60
2023-11-16T15:12:36.235Z,4.32
2023-11-16T15:15:03.053Z,2.50
2023-11-16T15:17:29.739Z,2.88
2023-11-16T15:19:56.337Z,3.00
2023-11-16T15:22:23.223Z,3.13
2023-11-16T15:24:50.735Z,3.90
2023-11-16T15:27:17.281Z,3.17
2023-11-16T15:29:43.826Z,2.97
2023-11-16T15:32:19.997Z,3.13
2023-11-16T15:34:46.616Z,4.40
2023-11-16T15:37:13.275Z,4.13
2023-11-16T15:39:40.166Z,3.17
2023-11-16T15:42:08.074Z,3.25
2023-11-16T15:44:34.856Z,3.38
2023-11-16T15:47:01.638Z,2.67
2023-11-16T15:49:28.590Z,3.60
2023-11-16T15:51:55.256Z,3.53
2023-11-16T15:54:21.775Z,4.57
2023-11-16T15:56:52.501Z,4.18
2023-11-16T15:59:19.328Z,3.67
2023-11-16T16:01:46.445Z,2.97
2023-11-16T16:04:13.569Z,2.83
2023-11-16T16:06:40.509Z,3.50
2023-11-16T16:09:09.423Z,3.63
2023-11-16T16:11:36.283Z,3.40
2023-11-16T16:14:02.973Z,2.78
2023-11-16T16:16:32.644Z,3.47
2023-11-16T16:19:01.416Z,2.75
2023-11-16T16:21:28.362Z,3.05
2023-11-16T16:23:55.217Z,3.45
2023-11-16T16:26:22.033Z,2.90
2023-11-16T16:28:48.682Z,3.22
2023-11-16T16:31:19.877Z,2.30
2023-11-16T16:33:46.495Z,2.65
2023-11-16T16:36:13.044Z,2.80
2023-11-16T16:38:39.588Z,3.35
2023-11-16T16:41:12.118Z,2.92
2023-11-16T16:43:42.462Z,2.80
2023-11-16T16:46:22.246Z,2.90
2023-11-16T16:48:49.172Z,4.30
2023-11-16T16:51:15.816Z,4.93
2023-11-16T16:53:44.537Z,4.78
2023-11-16T16:56:13.878Z,4.85
2023-11-16T16:58:40.468Z,4.25
2023-11-16T17:01:07.367Z,3.60
2023-11-16T17:03:34.084Z,3.72
2023-11-16T17:06:00.922Z,3.42
2023-11-16T17:08:27.397Z,3.50
2023-11-16T17:13:20.457Z,3.38
2023-11-16T17:15:47.090Z,3.30
2023-11-16T17:18:14.275Z,3.90
2023-11-16T17:20:41.010Z,3.85
2023-11-16T17:23:10.188Z,3.25
2023-11-16T17:25:38.527Z,3.45
2023-11-16T17:28:07.162Z,4.15
2023-11-16T17:30:34.166Z,3.17
2023-11-16T17:33:01.073Z,5.18
2023-11-16T17:35:27.713Z,3.63
2023-11-16T17:37:54.815Z,3.15
2023-11-16T17:40:27.170Z,4.03
2023-11-16T17:42:54.174Z,3.30
2023-11-16T17:45:23.884Z,3.63
2023-11-16T17:47:51.603Z,3.47
2023-11-16T17:50:18.803Z,3.50
2023-11-16T17:52:45.432Z,3.97
2023-11-16T17:55:14.268Z,3.15
2023-11-16T17:57:41.721Z,4.45
2023-11-16T18:00:11.983Z,3.17
2023-11-16T18:02:42.252Z,2.85
2023-11-16T18:05:15.858Z,3.00
2023-11-16T18:07:43.279Z,3.10
2023-11-16T18:10:09.959Z,2.92
2023-11-16T18:12:38.716Z,3.00
2023-11-16T18:15:09.923Z,3.95
2023-11-16T18:17:36.591Z,3.83
2023-11-16T18:20:07.052Z,2.22
2023-11-16T18:22:34.037Z,2.72
2023-11-16T18:25:00.677Z,2.75
2023-11-16T18:27:27.829Z,2.75
2023-11-16T18:29:54.366Z,2.63
2023-11-16T18:32:20.889Z,2.65
2023-11-16T18:34:50.996Z,2.85
2023-11-16T18:37:17.624Z,2.72
2023-11-16T18:39:44.472Z,3.42
2023-11-16T18:42:11.344Z,3.90
2023-11-16T18:44:38.897Z,3.03
2023-11-16T18:47:06.868Z,3.60
2023-11-16T18:49:33.522Z,4.15
2023-11-16T18:52:02.137Z,3.38
2023-11-16T18:54:30.728Z,8.65
2023-11-16T18:56:59.339Z,3.90
2023-11-16T18:59:26.564Z,2.78
2023-11-16T19:01:54.298Z,3.13
2023-11-16T19:04:22.432Z,2.90
2023-11-16T19:06:52.011Z,3.75
2023-11-16T19:09:22.405Z,3.00
2023-11-16T19:11:50.797Z,3.10
2023-11-16T19:14:18.992Z,2.90
2023-11-16T19:16:46.606Z,3.22
2023-11-16T19:19:14.546Z,3.08
2023-11-16T19:21:43.417Z,3.38
2023-11-16T19:24:13.797Z,4.03
2023-11-16T19:26:42.272Z,3.20
2023-11-16T19:29:12.023Z,2.35
2023-11-16T19:31:38.766Z,2.83
2023-11-16T19:34:05.577Z,6.03
2023-11-16T19:36:32.270Z,6.53
2023-11-16T19:39:08.346Z,3.95
2023-11-16T19:41:43.197Z,3.17
2023-11-16T19:44:09.823Z,2.88
2023-11-16T19:46:36.381Z,3.15
2023-11-16T19:49:04.856Z,2.30
2023-11-16T19:51:35.668Z,2.45
2023-11-16T19:54:04.240Z,3.08
2023-11-16T19:56:30.937Z,2.38
2023-11-16T19:58:57.403Z,2.58
2023-11-16T20:03:52.815Z,2.00
2023-11-16T20:06:19.467Z,2.53
2023-11-16T20:08:46.547Z,2.40
2023-11-16T20:11:14.941Z,1.83
2023-11-16T20:13:41.707Z,2.35
2023-11-16T20:16:12.099Z,2.22
2023-11-16T20:18:40.472Z,2.33
2023-11-16T20:21:07.322Z,2.35
2023-11-16T20:23:35.763Z,2.92
2023-11-16T20:26:05.120Z,2.60
2023-11-16T20:28:32.166Z,3.38
2023-11-16T20:30:58.868Z,2.05
2023-11-16T20:33:25.520Z,2.25
2023-11-16T20:35:52.699Z,2.65
2023-11-16T20:38:19.183Z,2.88
2023-11-16T20:40:46.409Z,3.30
2023-11-16T20:43:13.024Z,2.20
2023-11-16T20:45:39.610Z,2.35
2023-11-16T20:48:06.323Z,2.78
2023-11-16T20:50:32.934Z,2.60
2023-11-16T20:53:00.039Z,3.00
2023-11-16T20:55:26.637Z,2.75
2023-11-16T21:00:21.016Z,3.08
2023-11-16T21:02:49.569Z,3.95
2023-11-16T21:05:16.801Z,2.83
2023-11-16T21:07:44.025Z,2.88
2023-11-16T21:10:12.823Z,2.20
2023-11-16T21:12:40.128Z,3.33
2023-11-16T21:15:07.533Z,2.90
2023-11-16T21:17:35.142Z,3.15
2023-11-16T21:20:06.222Z,3.13
2023-11-16T21:22:32.839Z,3.13
2023-11-16T21:25:00.326Z,2.95
2023-11-16T21:27:27.773Z,3.38
2023-11-16T21:29:54.351Z,3.28
2023-11-16T21:32:22.165Z,3.38
2023-11-16T21:34:49.798Z,3.17
2023-11-16T21:37:16.417Z,3.33
2023-11-16T21:39:43.695Z,3.90
2023-11-16T21:42:11.021Z,3.53
2023-11-16T21:44:37.590Z,3.88
2023-11-16T21:47:04.613Z,3.40
2023-11-16T21:49:31.290Z,3.95
2023-11-16T21:51:59.071Z,4.00
2023-11-16T21:54:27.182Z,3.35
2023-11-16T21:56:54.987Z,3.85
2023-11-16T21:59:21.641Z,3.97
2023-11-16T22:01:49.756Z,4.03
2023-11-16T22:04:19.892Z,3.85
2023-11-16T22:06:46.823Z,4.50
2023-11-16T22:09:14.100Z,4.38
2023-11-16T22:11:40.950Z,4.65
2023-11-16T22:14:11.140Z,5.70
2023-11-16T22:16:38.669Z,4.60
2023-11-16T22:19:05.827Z,4.25
2023-11-16T22:21:34.855Z,4.13
2023-11-16T22:24:01.473Z,4.40
2023-11-16T22:28:56.968Z,4.10
2023-11-16T22:33:50.727Z,4.05
2023-11-16T22:36:18.064Z,4.35
2023-11-16T22:38:45.048Z,4.28
2023-11-16T22:41:13.145Z,4.32
2023-11-16T22:43:40.632Z,4.10
2023-11-16T22:46:08.334Z,3.88
2023-11-16T22:48:37.945Z,3.92
2023-11-16T22:51:07.507Z,3.72
2023-11-16T22:53:34.946Z,4.20
2023-11-16T22:56:01.565Z,3.72
2023-11-16T22:58:30.596Z,4.32
2023-11-16T23:01:00.311Z,4.13
2023-11-16T23:03:27.679Z,3.10
2023-11-16T23:05:54.312Z,3.97
2023-11-16T23:10:50.457Z,3.83
2023-11-16T23:13:20.483Z,3.67
2023-11-16T23:15:47.746Z,3.55
2023-11-16T23:18:14.734Z,4.63
2023-11-16T23:20:42.542Z,4.18
2023-11-16T23:23:12.608Z,4.32
2023-11-16T23:25:42.276Z,4.07
2023-11-16T23:28:11.635Z,4.35
2023-11-16T23:30:40.753Z,4.18
2023-11-16T23:33:09.412Z,3.78
2023-11-16T23:35:36.710Z,4.30
2023-11-16T23:38:03.268Z,3.78
2023-11-16T23:40:29.814Z,3.92
2023-11-16T23:45:25.107Z,4.00
2023-11-16T23:47:51.946Z,4.07
2023-11-16T23:50:18.599Z,3.95
2023-11-16T23:52:45.118Z,4.75
2023-11-16T23:57:40.102Z,4.13
